sensor_id;sensor_type;location;lat;lon;timestamp;P1;durP1;ratioP1;P2;durP2;ratioP2
17714;SDS011;8977;50.902;4.314;2023-02-28T00:00:32;7.47;;;5.40;;
17714;SDS011;8977;50.902;4.314;2023-02-28T00:03:00;7.40;;;5.40;;
17714;SDS011;8977;50.902;4.314;2023-02-28T00:05:28;7.37;;;5.50;;
17714;SDS011;8977;50.902;4.314;2023-02-28T00:07:55;8.27;;;5.00;;
17714;SDS011;8977;50.902;4.314;2023-02-28T00:10:25;6.73;;;5.27;;
17714;SDS011;8977;50.902;4.314;2023-02-28T00:12:56;5.10;;;4.33;;
17714;SDS011;8977;50.902;4.314;2023-02-28T00:15:27;5.60;;;5.00;;
17714;SDS011;8977;50.902;4.314;2023-02-28T00:17:54;5.67;;;4.67;;
17714;SDS011;8977;50.902;4.314;2023-02-28T00:20:21;6.73;;;5.17;;
17714;SDS011;8977;50.902;4.314;2023-02-28T00:22:49;6.50;;;5.00;;
17714;SDS011;8977;50.902;4.314;2023-02-28T00:25:18;6.43;;;5.20;;
17714;SDS011;8977;50.902;4.314;2023-02-28T00:27:48;6.50;;;5.20;;
17714;SDS011;8977;50.902;4.314;2023-02-28T00:30:16;9.10;;;5.63;;
17714;SDS011;8977;50.902;4.314;2023-02-28T00:32:45;7.90;;;5.00;;
17714;SDS011;8977;50.902;4.314;2023-02-28T00:35:12;6.23;;;5.63;;
17714;SDS011;8977;50.902;4.314;2023-02-28T00:37:39;8.13;;;5.47;;
17714;SDS011;8977;50.902;4.314;2023-02-28T00:40:06;6.70;;;5.40;;
17714;SDS011;8977;50.902;4.314;2023-02-28T00:42:37;7.87;;;5.60;;
17714;SDS011;8977;50.902;4.314;2023-02-28T00:45:06;5.63;;;5.10;;
17714;SDS011;8977;50.902;4.314;2023-02-28T00:47:34;5.40;;;4.80;;
17714;SDS011;8977;50.902;4.314;2023-02-28T00:50:01;7.30;;;5.17;;
17714;SDS011;8977;50.902;4.314;2023-02-28T00:52:29;8.17;;;5.27;;
17714;SDS011;8977;50.902;4.314;2023-02-28T00:54:56;9.17;;;5.17;;
17714;SDS011;8977;50.902;4.314;2023-02-28T00:57:22;6.70;;;5.90;;
17714;SDS011;8977;50.902;4.314;2023-02-28T00:59:49;6.40;;;5.40;;
17714;SDS011;8977;50.902;4.314;2023-02-28T01:02:20;6.43;;;5.13;;
17714;SDS011;8977;50.902;4.314;2023-02-28T01:04:47;7.00;;;5.47;;
17714;SDS011;8977;50.902;4.314;2023-02-28T01:07:14;8.20;;;5.43;;
17714;SDS011;8977;50.902;4.314;2023-02-28T01:09:41;6.10;;;5.30;;
17714;SDS011;8977;50.902;4.314;2023-02-28T01:12:08;9.00;;;5.60;;
17714;SDS011;8977;50.902;4.314;2023-02-28T01:14:35;6.10;;;5.50;;
17714;SDS011;8977;50.902;4.314;2023-02-28T01:17:02;8.87;;;5.97;;
17714;SDS011;8977;50.902;4.314;2023-02-28T01:19:30;6.13;;;5.53;;
17714;SDS011;8977;50.902;4.314;2023-02-28T01:21:59;6.30;;;5.70;;
17714;SDS011;8977;50.902;4.314;2023-02-28T01:24:27;7.87;;;5.83;;
17714;SDS011;8977;50.902;4.314;2023-02-28T01:26:57;7.17;;;5.33;;
17714;SDS011;8977;50.902;4.314;2023-02-28T01:29:25;7.73;;;5.77;;
17714;SDS011;8977;50.902;4.314;2023-02-28T01:31:51;5.97;;;5.13;;
17714;SDS011;8977;50.902;4.314;2023-02-28T01:34:18;6.20;;;5.57;;
17714;SDS011;8977;50.902;4.314;2023-02-28T01:36:47;8.13;;;5.63;;
17714;SDS011;8977;50.902;4.314;2023-02-28T01:39:14;6.97;;;5.93;;
17714;SDS011;8977;50.902;4.314;2023-02-28T01:41:41;7.40;;;6.00;;
17714;SDS011;8977;50.902;4.314;2023-02-28T01:47:08;7.80;;;5.73;;
17714;SDS011;8977;50.902;4.314;2023-02-28T01:49:35;6.73;;;6.03;;
17714;SDS011;8977;50.902;4.314;2023-02-28T01:52:04;7.60;;;6.10;;
17714;SDS011;8977;50.902;4.314;2023-02-28T01:54:33;6.17;;;5.57;;
17714;SDS011;8977;50.902;4.314;2023-02-28T01:57:02;6.87;;;5.87;;
17714;SDS011;8977;50.902;4.314;2023-02-28T01:59:33;9.00;;;5.97;;
17714;SDS011;8977;50.902;4.314;2023-02-28T02:02:03;6.33;;;5.73;;
17714;SDS011;8977;50.902;4.314;2023-02-28T02:04:32;6.83;;;6.13;;
17714;SDS011;8977;50.902;4.314;2023-02-28T02:07:04;7.85;;;7.05;;
17714;SDS011;8977;50.902;4.314;2023-02-28T02:09:31;7.40;;;6.60;;
17714;SDS011;8977;50.902;4.314;2023-02-28T02:11:58;8.77;;;6.77;;
17714;SDS011;8977;50.902;4.314;2023-02-28T02:14:40;7.33;;;6.03;;
17714;SDS011;8977;50.902;4.314;2023-02-28T02:17:19;7.07;;;6.37;;
17714;SDS011;8977;50.902;4.314;2023-02-28T02:25:53;8.73;;;6.43;;
17714;SDS011;8977;50.902;4.314;2023-02-28T02:28:29;8.30;;;6.77;;
17714;SDS011;8977;50.902;4.314;2023-02-28T02:31:26;7.07;;;6.37;;
17714;SDS011;8977;50.902;4.314;2023-02-28T02:34:10;9.00;;;7.23;;
17714;SDS011;8977;50.902;4.314;2023-02-28T02:36:57;8.13;;;6.63;;
17714;SDS011;8977;50.902;4.314;2023-02-28T02:39:31;7.40;;;6.63;;
17714;SDS011;8977;50.902;4.314;2023-02-28T02:42:05;7.43;;;6.50;;
17714;SDS011;8977;50.902;4.314;2023-02-28T02:44:42;7.57;;;6.23;;
17714;SDS011;8977;50.902;4.314;2023-02-28T02:47:14;7.40;;;6.70;;
17714;SDS011;8977;50.902;4.314;2023-02-28T02:49:47;10.63;;;6.97;;
17714;SDS011;8977;50.902;4.314;2023-02-28T02:52:18;7.80;;;6.93;;
17714;SDS011;8977;50.902;4.314;2023-02-28T02:54:48;9.10;;;7.13;;
17714;SDS011;8977;50.902;4.314;2023-02-28T02:57:20;8.57;;;6.43;;
17714;SDS011;8977;50.902;4.314;2023-02-28T02:59:51;7.27;;;6.60;;
17714;SDS011;8977;50.902;4.314;2023-02-28T03:02:20;8.83;;;7.13;;
17714;SDS011;8977;50.902;4.314;2023-02-28T03:04:50;7.80;;;7.00;;
17714;SDS011;8977;50.902;4.314;2023-02-28T03:07:18;7.80;;;7.00;;
17714;SDS011;8977;50.902;4.314;2023-02-28T03:09:50;9.17;;;7.00;;
17714;SDS011;8977;50.902;4.314;2023-02-28T03:12:18;8.13;;;7.33;;
17714;SDS011;8977;50.902;4.314;2023-02-28T03:14:50;8.37;;;7.33;;
17714;SDS011;8977;50.902;4.314;2023-02-28T03:17:31;7.70;;;7.00;;
17714;SDS011;8977;50.902;4.314;2023-02-28T03:20:17;9.23;;;7.27;;
17714;SDS011;8977;50.902;4.314;2023-02-28T03:22:57;9.53;;;7.40;;
17714;SDS011;8977;50.902;4.314;2023-02-28T03:25:31;9.37;;;7.67;;
17714;SDS011;8977;50.902;4.314;2023-02-28T03:28:05;7.57;;;6.83;;
17714;SDS011;8977;50.902;4.314;2023-02-28T03:30:38;7.77;;;6.97;;
17714;SDS011;8977;50.902;4.314;2023-02-28T03:33:12;8.17;;;7.07;;
17714;SDS011;8977;50.902;4.314;2023-02-28T03:35:45;9.47;;;7.60;;
17714;SDS011;8977;50.902;4.314;2023-02-28T03:38:17;8.50;;;7.10;;
17714;SDS011;8977;50.902;4.314;2023-02-28T03:40:49;7.80;;;7.10;;
17714;SDS011;8977;50.902;4.314;2023-02-28T03:43:21;8.87;;;7.47;;
17714;SDS011;8977;50.902;4.314;2023-02-28T03:45:53;8.57;;;6.90;;
17714;SDS011;8977;50.902;4.314;2023-02-28T03:48:23;7.60;;;6.83;;
17714;SDS011;8977;50.902;4.314;2023-02-28T03:50:57;8.23;;;7.30;;
17714;SDS011;8977;50.902;4.314;2023-02-28T03:53:27;9.83;;;7.30;;
17714;SDS011;8977;50.902;4.314;2023-02-28T03:55:59;9.70;;;7.60;;
17714;SDS011;8977;50.902;4.314;2023-02-28T03:58:30;9.20;;;7.47;;
17714;SDS011;8977;50.902;4.314;2023-02-28T04:01:04;9.13;;;7.83;;
17714;SDS011;8977;50.902;4.314;2023-02-28T04:03:34;14.63;;;8.30;;
17714;SDS011;8977;50.902;4.314;2023-02-28T04:06:03;9.53;;;8.47;;
17714;SDS011;8977;50.902;4.314;2023-02-28T04:08:32;11.43;;;9.27;;
17714;SDS011;8977;50.902;4.314;2023-02-28T04:11:00;10.73;;;8.50;;
17714;SDS011;8977;50.902;4.314;2023-02-28T04:13:31;14.00;;;9.27;;
17714;SDS011;8977;50.902;4.314;2023-02-28T04:15:58;11.00;;;9.90;;
17714;SDS011;8977;50.902;4.314;2023-02-28T04:18:25;11.70;;;8.90;;
17714;SDS011;8977;50.902;4.314;2023-02-28T04:20:51;11.13;;;9.27;;
17714;SDS011;8977;50.902;4.314;2023-02-28T04:23:20;11.40;;;8.70;;
17714;SDS011;8977;50.902;4.314;2023-02-28T04:25:47;11.20;;;8.67;;
17714;SDS011;8977;50.902;4.314;2023-02-28T04:28:16;9.23;;;8.33;;
17714;SDS011;8977;50.902;4.314;2023-02-28T04:30:42;9.03;;;8.13;;
17714;SDS011;8977;50.902;4.314;2023-02-28T04:33:09;9.53;;;8.17;;
17714;SDS011;8977;50.902;4.314;2023-02-28T04:35:38;9.37;;;8.23;;
17714;SDS011;8977;50.902;4.314;2023-02-28T04:38:05;11.47;;;7.57;;
17714;SDS011;8977;50.902;4.314;2023-02-28T04:40:33;11.40;;;7.80;;
17714;SDS011;8977;50.902;4.314;2023-02-28T04:43:00;9.70;;;8.23;;
17714;SDS011;8977;50.902;4.314;2023-02-28T04:45:28;10.97;;;8.10;;
17714;SDS011;8977;50.902;4.314;2023-02-28T04:47:57;10.10;;;7.57;;
17714;SDS011;8977;50.902;4.314;2023-02-28T04:50:24;10.30;;;8.17;;
17714;SDS011;8977;50.902;4.314;2023-02-28T04:52:51;9.97;;;7.77;;
17714;SDS011;8977;50.902;4.314;2023-02-28T04:55:17;9.20;;;7.57;;
17714;SDS011;8977;50.902;4.314;2023-02-28T04:57:46;10.10;;;8.20;;
17714;SDS011;8977;50.902;4.314;2023-02-28T05:00:14;8.93;;;8.07;;
17714;SDS011;8977;50.902;4.314;2023-02-28T05:02:41;10.37;;;8.10;;
17714;SDS011;8977;50.902;4.314;2023-02-28T05:05:08;11.27;;;8.67;;
17714;SDS011;8977;50.902;4.314;2023-02-28T05:07:37;10.77;;;8.03;;
17714;SDS011;8977;50.902;4.314;2023-02-28T05:10:04;8.93;;;8.03;;
17714;SDS011;8977;50.902;4.314;2023-02-28T05:12:31;10.10;;;8.57;;
17714;SDS011;8977;50.902;4.314;2023-02-28T05:15:00;8.53;;;7.63;;
17714;SDS011;8977;50.902;4.314;2023-02-28T05:17:30;10.33;;;7.80;;
17714;SDS011;8977;50.902;4.314;2023-02-28T05:19:57;11.13;;;8.20;;
17714;SDS011;8977;50.902;4.314;2023-02-28T05:22:23;9.93;;;8.03;;
17714;SDS011;8977;50.902;4.314;2023-02-28T05:24:50;11.70;;;8.23;;
17714;SDS011;8977;50.902;4.314;2023-02-28T05:27:17;10.77;;;7.63;;
17714;SDS011;8977;50.902;4.314;2023-02-28T05:29:44;11.07;;;7.87;;
17714;SDS011;8977;50.902;4.314;2023-02-28T05:32:15;12.23;;;8.43;;
17714;SDS011;8977;50.902;4.314;2023-02-28T05:34:44;10.63;;;8.17;;
17714;SDS011;8977;50.902;4.314;2023-02-28T05:37:11;9.70;;;7.63;;
17714;SDS011;8977;50.902;4.314;2023-02-28T05:39:40;8.77;;;7.87;;
17714;SDS011;8977;50.902;4.314;2023-02-28T05:42:08;10.33;;;8.70;;
17714;SDS011;8977;50.902;4.314;2023-02-28T05:44:35;10.23;;;8.63;;
17714;SDS011;8977;50.902;4.314;2023-02-28T05:47:03;9.90;;;7.90;;
17714;SDS011;8977;50.902;4.314;2023-02-28T05:49:31;9.03;;;7.93;;
17714;SDS011;8977;50.902;4.314;2023-02-28T05:51:58;9.87;;;8.00;;
17714;SDS011;8977;50.902;4.314;2023-02-28T05:54:25;10.63;;;7.80;;
17714;SDS011;8977;50.902;4.314;2023-02-28T05:56:52;11.87;;;7.93;;
17714;SDS011;8977;50.902;4.314;2023-02-28T05:59:19;9.00;;;7.73;;
17714;SDS011;8977;50.902;4.314;2023-02-28T06:01:46;8.60;;;7.67;;
17714;SDS011;8977;50.902;4.314;2023-02-28T06:04:14;9.30;;;7.27;;
17714;SDS011;8977;50.902;4.314;2023-02-28T06:06:45;9.97;;;7.90;;
17714;SDS011;8977;50.902;4.314;2023-02-28T06:09:12;11.63;;;8.13;;
17714;SDS011;8977;50.902;4.314;2023-02-28T06:11:39;10.23;;;7.80;;
17714;SDS011;8977;50.902;4.314;2023-02-28T06:14:07;10.10;;;7.80;;
17714;SDS011;8977;50.902;4.314;2023-02-28T06:16:39;8.57;;;7.70;;
17714;SDS011;8977;50.902;4.314;2023-02-28T06:19:06;9.50;;;8.17;;
17714;SDS011;8977;50.902;4.314;2023-02-28T06:21:33;10.00;;;7.70;;
17714;SDS011;8977;50.902;4.314;2023-02-28T06:24:01;10.87;;;7.97;;
17714;SDS011;8977;50.902;4.314;2023-02-28T06:26:28;8.40;;;7.53;;
17714;SDS011;8977;50.902;4.314;2023-02-28T06:28:55;9.20;;;8.23;;
17714;SDS011;8977;50.902;4.314;2023-02-28T06:31:22;9.50;;;7.90;;
17714;SDS011;8977;50.902;4.314;2023-02-28T06:33:51;11.13;;;8.50;;
17714;SDS011;8977;50.902;4.314;2023-02-28T06:36:18;10.53;;;8.37;;
17714;SDS011;8977;50.902;4.314;2023-02-28T06:38:45;8.20;;;7.40;;
17714;SDS011;8977;50.902;4.314;2023-02-28T06:41:17;11.17;;;8.60;;
17714;SDS011;8977;50.902;4.314;2023-02-28T06:43:44;9.00;;;7.90;;
17714;SDS011;8977;50.902;4.314;2023-02-28T06:46:11;8.87;;;7.50;;
17714;SDS011;8977;50.902;4.314;2023-02-28T06:48:40;9.60;;;7.33;;
17714;SDS011;8977;50.902;4.314;2023-02-28T06:51:09;10.27;;;7.60;;
17714;SDS011;8977;50.902;4.314;2023-02-28T06:53:38;9.57;;;7.77;;
17714;SDS011;8977;50.902;4.314;2023-02-28T06:56:05;10.17;;;7.90;;
17714;SDS011;8977;50.902;4.314;2023-02-28T06:58:35;9.07;;;7.63;;
17714;SDS011;8977;50.902;4.314;2023-02-28T07:01:02;9.60;;;8.10;;
17714;SDS011;8977;50.902;4.314;2023-02-28T07:03:29;9.00;;;8.10;;
17714;SDS011;8977;50.902;4.314;2023-02-28T07:06:26;11.33;;;8.30;;
17714;SDS011;8977;50.902;4.314;2023-02-28T07:08:53;8.90;;;7.57;;
17714;SDS011;8977;50.902;4.314;2023-02-28T07:11:20;8.87;;;7.87;;
17714;SDS011;8977;50.902;4.314;2023-02-28T07:13:51;10.83;;;7.60;;
17714;SDS011;8977;50.902;4.314;2023-02-28T07:16:21;9.67;;;7.70;;
17714;SDS011;8977;50.902;4.314;2023-02-28T07:18:52;10.40;;;8.20;;
17714;SDS011;8977;50.902;4.314;2023-02-28T07:21:19;8.97;;;7.40;;
17714;SDS011;8977;50.902;4.314;2023-02-28T07:23:49;10.30;;;7.27;;
17714;SDS011;8977;50.902;4.314;2023-02-28T07:26:17;8.70;;;7.17;;
17714;SDS011;8977;50.902;4.314;2023-02-28T07:28:46;9.40;;;8.03;;
17714;SDS011;8977;50.902;4.314;2023-02-28T07:31:15;10.63;;;7.83;;
17714;SDS011;8977;50.902;4.314;2023-02-28T07:33:43;10.30;;;7.30;;
17714;SDS011;8977;50.902;4.314;2023-02-28T07:36:11;7.73;;;6.93;;
17714;SDS011;8977;50.902;4.314;2023-02-28T07:38:40;9.50;;;7.17;;
17714;SDS011;8977;50.902;4.314;2023-02-28T07:41:08;10.30;;;7.30;;
17714;SDS011;8977;50.902;4.314;2023-02-28T07:43:35;10.07;;;7.17;;
17714;SDS011;8977;50.902;4.314;2023-02-28T07:46:02;10.77;;;8.17;;
17714;SDS011;8977;50.902;4.314;2023-02-28T07:48:32;10.73;;;7.77;;
17714;SDS011;8977;50.902;4.314;2023-02-28T07:50:59;10.13;;;7.33;;
17714;SDS011;8977;50.902;4.314;2023-02-28T07:53:26;10.73;;;7.20;;
17714;SDS011;8977;50.902;4.314;2023-02-28T07:55:55;8.00;;;7.07;;
17714;SDS011;8977;50.902;4.314;2023-02-28T07:58:22;9.43;;;7.20;;
17714;SDS011;8977;50.902;4.314;2023-02-28T08:00:49;8.73;;;7.30;;
17714;SDS011;8977;50.902;4.314;2023-02-28T08:03:17;9.47;;;6.57;;
17714;SDS011;8977;50.902;4.314;2023-02-28T08:05:45;7.37;;;6.60;;
17714;SDS011;8977;50.902;4.314;2023-02-28T08:08:12;13.07;;;7.07;;
17714;SDS011;8977;50.902;4.314;2023-02-28T08:10:40;7.07;;;6.37;;
17714;SDS011;8977;50.902;4.314;2023-02-28T08:13:07;7.53;;;6.37;;
17714;SDS011;8977;50.902;4.314;2023-02-28T08:15:34;9.53;;;5.87;;
17714;SDS011;8977;50.902;4.314;2023-02-28T08:18:01;7.93;;;6.17;;
17714;SDS011;8977;50.902;4.314;2023-02-28T08:20:28;6.83;;;5.17;;
17714;SDS011;8977;50.902;4.314;2023-02-28T08:22:57;5.40;;;4.63;;
17714;SDS011;8977;50.902;4.314;2023-02-28T08:25:24;5.97;;;4.67;;
17714;SDS011;8977;50.902;4.314;2023-02-28T08:27:50;6.13;;;4.77;;
17714;SDS011;8977;50.902;4.314;2023-02-28T08:30:18;5.37;;;4.23;;
17714;SDS011;8977;50.902;4.314;2023-02-28T08:32:45;6.83;;;4.60;;
17714;SDS011;8977;50.902;4.314;2023-02-28T08:35:11;5.80;;;4.40;;
17714;SDS011;8977;50.902;4.314;2023-02-28T08:37:39;5.17;;;3.93;;
17714;SDS011;8977;50.902;4.314;2023-02-28T08:40:09;5.77;;;4.23;;
17714;SDS011;8977;50.902;4.314;2023-02-28T08:42:38;4.13;;;3.73;;
17714;SDS011;8977;50.902;4.314;2023-02-28T08:45:06;4.43;;;3.97;;
17714;SDS011;8977;50.902;4.314;2023-02-28T08:47:33;6.30;;;4.30;;
17714;SDS011;8977;50.902;4.314;2023-02-28T08:50:00;4.47;;;4.07;;
17714;SDS011;8977;50.902;4.314;2023-02-28T08:52:27;5.57;;;3.87;;
17714;SDS011;8977;50.902;4.314;2023-02-28T08:54:54;5.17;;;3.60;;
17714;SDS011;8977;50.902;4.314;2023-02-28T08:57:22;4.73;;;3.23;;
17714;SDS011;8977;50.902;4.314;2023-02-28T08:59:51;4.83;;;3.60;;
17714;SDS011;8977;50.902;4.314;2023-02-28T09:02:18;3.77;;;2.93;;
17714;SDS011;8977;50.902;4.314;2023-02-28T09:04:45;4.87;;;3.10;;
17714;SDS011;8977;50.902;4.314;2023-02-28T09:07:13;4.03;;;3.03;;
17714;SDS011;8977;50.902;4.314;2023-02-28T09:10:00;3.60;;;3.00;;
17714;SDS011;8977;50.902;4.314;2023-02-28T09:12:28;5.70;;;3.07;;
17714;SDS011;8977;50.902;4.314;2023-02-28T09:15:00;3.20;;;2.90;;
17714;SDS011;8977;50.902;4.314;2023-02-28T09:17:27;3.50;;;2.80;;
17714;SDS011;8977;50.902;4.314;2023-02-28T09:19:54;5.87;;;3.50;;
17714;SDS011;8977;50.902;4.314;2023-02-28T09:22:21;3.33;;;3.07;;
17714;SDS011;8977;50.902;4.314;2023-02-28T09:24:47;3.87;;;2.93;;
17714;SDS011;8977;50.902;4.314;2023-02-28T09:27:14;4.63;;;3.10;;
17714;SDS011;8977;50.902;4.314;2023-02-28T09:29:42;4.47;;;3.17;;
17714;SDS011;8977;50.902;4.314;2023-02-28T09:32:09;4.37;;;3.17;;
17714;SDS011;8977;50.902;4.314;2023-02-28T09:34:36;3.03;;;2.70;;
17714;SDS011;8977;50.902;4.314;2023-02-28T09:37:04;3.50;;;3.20;;
17714;SDS011;8977;50.902;4.314;2023-02-28T09:39:30;2.70;;;2.50;;
17714;SDS011;8977;50.902;4.314;2023-02-28T09:41:57;2.80;;;2.60;;
17714;SDS011;8977;50.902;4.314;2023-02-28T09:44:26;3.43;;;2.53;;
17714;SDS011;8977;50.902;4.314;2023-02-28T09:47:07;3.27;;;2.40;;
17714;SDS011;8977;50.902;4.314;2023-02-28T09:49:39;4.33;;;2.57;;
17714;SDS011;8977;50.902;4.314;2023-02-28T09:52:12;2.90;;;2.70;;
17714;SDS011;8977;50.902;4.314;2023-02-28T09:54:41;3.00;;;2.70;;
17714;SDS011;8977;50.902;4.314;2023-02-28T09:57:13;3.63;;;2.67;;
17714;SDS011;8977;50.902;4.314;2023-02-28T09:59:49;3.27;;;2.53;;
17714;SDS011;8977;50.902;4.314;2023-02-28T10:02:35;3.33;;;2.70;;
17714;SDS011;8977;50.902;4.314;2023-02-28T10:05:19;2.73;;;2.50;;
17714;SDS011;8977;50.902;4.314;2023-02-28T10:07:51;3.07;;;2.77;;
17714;SDS011;8977;50.902;4.314;2023-02-28T10:10:27;3.60;;;2.87;;
17714;SDS011;8977;50.902;4.314;2023-02-28T10:12:59;3.30;;;2.43;;
17714;SDS011;8977;50.902;4.314;2023-02-28T10:15:30;5.37;;;2.90;;
17714;SDS011;8977;50.902;4.314;2023-02-28T10:18:02;2.93;;;2.63;;
17714;SDS011;8977;50.902;4.314;2023-02-28T10:20:32;2.63;;;2.43;;
17714;SDS011;8977;50.902;4.314;2023-02-28T10:23:03;3.97;;;2.17;;
17714;SDS011;8977;50.902;4.314;2023-02-28T10:25:35;2.60;;;2.40;;
17714;SDS011;8977;50.902;4.314;2023-02-28T10:28:09;2.60;;;2.40;;
17714;SDS011;8977;50.902;4.314;2023-02-28T10:30:38;4.07;;;2.77;;
17714;SDS011;8977;50.902;4.314;2023-02-28T10:33:09;3.70;;;2.43;;
17714;SDS011;8977;50.902;4.314;2023-02-28T10:35:45;3.37;;;2.47;;
17714;SDS011;8977;50.902;4.314;2023-02-28T10:38:14;4.03;;;2.70;;
17714;SDS011;8977;50.902;4.314;2023-02-28T10:40:43;3.10;;;2.70;;
17714;SDS011;8977;50.902;4.314;2023-02-28T10:43:18;2.70;;;2.47;;
17714;SDS011;8977;50.902;4.314;2023-02-28T10:45:56;3.53;;;2.70;;
17714;SDS011;8977;50.902;4.314;2023-02-28T10:48:29;3.43;;;2.50;;
17714;SDS011;8977;50.902;4.314;2023-02-28T10:50:58;3.03;;;2.43;;
17714;SDS011;8977;50.902;4.314;2023-02-28T10:53:37;3.00;;;2.70;;
17714;SDS011;8977;50.902;4.314;2023-02-28T10:56:15;3.53;;;2.60;;
17714;SDS011;8977;50.902;4.314;2023-02-28T10:58:52;5.23;;;2.57;;
17714;SDS011;8977;50.902;4.314;2023-02-28T11:01:23;2.20;;;2.00;;
17714;SDS011;8977;50.902;4.314;2023-02-28T11:03:52;2.33;;;1.90;;
17714;SDS011;8977;50.902;4.314;2023-02-28T11:06:20;2.20;;;2.00;;
17714;SDS011;8977;50.902;4.314;2023-02-28T11:08:50;3.50;;;2.10;;
17714;SDS011;8977;50.902;4.314;2023-02-28T11:11:26;2.70;;;2.20;;
17714;SDS011;8977;50.902;4.314;2023-02-28T11:13:56;2.40;;;2.20;;
17714;SDS011;8977;50.902;4.314;2023-02-28T11:16:32;2.80;;;2.43;;
17714;SDS011;8977;50.902;4.314;2023-02-28T11:19:02;2.23;;;2.03;;
17714;SDS011;8977;50.902;4.314;2023-02-28T11:21:31;2.33;;;2.07;;
17714;SDS011;8977;50.902;4.314;2023-02-28T11:24:01;2.23;;;2.00;;
17714;SDS011;8977;50.902;4.314;2023-02-28T11:26:40;2.43;;;2.20;;
17714;SDS011;8977;50.902;4.314;2023-02-28T11:29:10;2.90;;;2.37;;
17714;SDS011;8977;50.902;4.314;2023-02-28T11:31:41;2.23;;;2.00;;
17714;SDS011;8977;50.902;4.314;2023-02-28T11:37:02;4.83;;;2.50;;
17714;SDS011;8977;50.902;4.314;2023-02-28T11:39:30;2.43;;;2.23;;
17714;SDS011;8977;50.902;4.314;2023-02-28T11:42:02;3.57;;;2.50;;
17714;SDS011;8977;50.902;4.314;2023-02-28T11:44:47;2.80;;;2.13;;
17714;SDS011;8977;50.902;4.314;2023-02-28T11:47:25;2.47;;;2.27;;
17714;SDS011;8977;50.902;4.314;2023-02-28T11:50:14;7.07;;;2.87;;
17714;SDS011;8977;50.902;4.314;2023-02-28T11:52:53;2.50;;;2.30;;
17714;SDS011;8977;50.902;4.314;2023-02-28T11:55:24;2.30;;;2.10;;
17714;SDS011;8977;50.902;4.314;2023-02-28T12:00:52;3.23;;;2.20;;
17714;SDS011;8977;50.902;4.314;2023-02-28T12:03:32;3.80;;;2.40;;
17714;SDS011;8977;50.902;4.314;2023-02-28T12:06:09;2.77;;;2.30;;
17714;SDS011;8977;50.902;4.314;2023-02-28T12:08:46;2.50;;;2.30;;
17714;SDS011;8977;50.902;4.314;2023-02-28T12:11:19;2.47;;;2.27;;
17714;SDS011;8977;50.902;4.314;2023-02-28T12:14:06;2.27;;;2.07;;
17714;SDS011;8977;50.902;4.314;2023-02-28T12:16:53;2.37;;;2.17;;
17714;SDS011;8977;50.902;4.314;2023-02-28T12:19:28;2.73;;;2.53;;
17714;SDS011;8977;50.902;4.314;2023-02-28T12:22:19;3.27;;;2.50;;
17714;SDS011;8977;50.902;4.314;2023-02-28T12:27:50;2.40;;;2.20;;
17714;SDS011;8977;50.902;4.314;2023-02-28T12:30:19;2.90;;;2.70;;
17714;SDS011;8977;50.902;4.314;2023-02-28T12:32:51;2.57;;;2.37;;
17714;SDS011;8977;50.902;4.314;2023-02-28T12:35:22;2.60;;;2.40;;
17714;SDS011;8977;50.902;4.314;2023-02-28T12:37:54;3.20;;;2.47;;
17714;SDS011;8977;50.902;4.314;2023-02-28T12:40:25;3.53;;;2.70;;
17714;SDS011;8977;50.902;4.314;2023-02-28T12:42:58;3.63;;;2.87;;
17714;SDS011;8977;50.902;4.314;2023-02-28T12:45:31;2.80;;;2.50;;
17714;SDS011;8977;50.902;4.314;2023-02-28T12:48:09;2.53;;;2.30;;
17714;SDS011;8977;50.902;4.314;2023-02-28T12:50:39;2.70;;;2.40;;
17714;SDS011;8977;50.902;4.314;2023-02-28T12:53:09;6.03;;;2.73;;
17714;SDS011;8977;50.902;4.314;2023-02-28T12:55:42;2.63;;;2.43;;
17714;SDS011;8977;50.902;4.314;2023-02-28T12:58:13;2.90;;;2.50;;
17714;SDS011;8977;50.902;4.314;2023-02-28T13:00:49;3.60;;;2.30;;
17714;SDS011;8977;50.902;4.314;2023-02-28T13:03:34;4.17;;;2.60;;
17714;SDS011;8977;50.902;4.314;2023-02-28T13:06:18;3.13;;;2.43;;
17714;SDS011;8977;50.902;4.314;2023-02-28T13:09:06;2.40;;;2.20;;
17714;SDS011;8977;50.902;4.314;2023-02-28T13:11:38;2.60;;;2.40;;
17714;SDS011;8977;50.902;4.314;2023-02-28T13:14:20;2.80;;;2.60;;
17714;SDS011;8977;50.902;4.314;2023-02-28T13:16:56;2.90;;;2.27;;
17714;SDS011;8977;50.902;4.314;2023-02-28T13:19:27;3.70;;;2.60;;
17714;SDS011;8977;50.902;4.314;2023-02-28T13:21:56;3.67;;;2.50;;
17714;SDS011;8977;50.902;4.314;2023-02-28T13:24:38;2.67;;;2.40;;
17714;SDS011;8977;50.902;4.314;2023-02-28T13:27:11;3.10;;;2.80;;
17714;SDS011;8977;50.902;4.314;2023-02-28T13:33:26;3.40;;;2.67;;
17714;SDS011;8977;50.902;4.314;2023-02-28T13:36:10;3.03;;;2.30;;
17714;SDS011;8977;50.902;4.314;2023-02-28T13:38:49;2.80;;;2.40;;
17714;SDS011;8977;50.902;4.314;2023-02-28T13:44:09;3.47;;;2.43;;
17714;SDS011;8977;50.902;4.314;2023-02-28T13:49:37;4.30;;;2.90;;
17714;SDS011;8977;50.902;4.314;2023-02-28T13:52:07;2.70;;;2.50;;
17714;SDS011;8977;50.902;4.314;2023-02-28T13:54:44;2.83;;;2.50;;
17714;SDS011;8977;50.902;4.314;2023-02-28T13:57:25;2.93;;;2.70;;
17714;SDS011;8977;50.902;4.314;2023-02-28T14:00:07;3.20;;;2.90;;
17714;SDS011;8977;50.902;4.314;2023-02-28T14:08:36;2.93;;;2.63;;
17714;SDS011;8977;50.902;4.314;2023-02-28T14:11:04;3.10;;;2.80;;
17714;SDS011;8977;50.902;4.314;2023-02-28T14:13:41;2.67;;;2.47;;
17714;SDS011;8977;50.902;4.314;2023-02-28T14:16:11;2.80;;;2.60;;
17714;SDS011;8977;50.902;4.314;2023-02-28T14:18:41;3.60;;;2.60;;
17714;SDS011;8977;50.902;4.314;2023-02-28T14:21:19;2.90;;;2.47;;
17714;SDS011;8977;50.902;4.314;2023-02-28T14:24:01;2.70;;;2.20;;
17714;SDS011;8977;50.902;4.314;2023-02-28T14:27:03;3.13;;;2.60;;
17714;SDS011;8977;50.902;4.314;2023-02-28T14:29:56;3.30;;;2.70;;
17714;SDS011;8977;50.902;4.314;2023-02-28T14:32:41;3.13;;;2.53;;
17714;SDS011;8977;50.902;4.314;2023-02-28T14:35:18;3.47;;;2.90;;
17714;SDS011;8977;50.902;4.314;2023-02-28T14:37:53;3.07;;;2.77;;
17714;SDS011;8977;50.902;4.314;2023-02-28T14:40:27;2.60;;;2.40;;
17714;SDS011;8977;50.902;4.314;2023-02-28T14:43:18;3.27;;;2.57;;
17714;SDS011;8977;50.902;4.314;2023-02-28T14:45:50;3.53;;;3.07;;
17714;SDS011;8977;50.902;4.314;2023-02-28T14:48:18;3.40;;;3.10;;
17714;SDS011;8977;50.902;4.314;2023-02-28T14:50:49;4.13;;;3.17;;
17714;SDS011;8977;50.902;4.314;2023-02-28T14:53:19;3.73;;;3.03;;
17714;SDS011;8977;50.902;4.314;2023-02-28T14:55:48;3.50;;;3.20;;
17714;SDS011;8977;50.902;4.314;2023-02-28T14:58:22;4.80;;;3.30;;
17714;SDS011;8977;50.902;4.314;2023-02-28T15:00:52;3.50;;;2.83;;
17714;SDS011;8977;50.902;4.314;2023-02-28T15:03:22;4.07;;;2.87;;
17714;SDS011;8977;50.902;4.314;2023-02-28T15:05:54;5.40;;;2.93;;
17714;SDS011;8977;50.902;4.314;2023-02-28T15:08:22;3.50;;;3.20;;
17714;SDS011;8977;50.902;4.314;2023-02-28T15:10:51;4.03;;;3.30;;
17714;SDS011;8977;50.902;4.314;2023-02-28T15:13:20;3.90;;;3.30;;
17714;SDS011;8977;50.902;4.314;2023-02-28T15:15:49;3.60;;;3.30;;
17714;SDS011;8977;50.902;4.314;2023-02-28T15:18:23;3.30;;;2.87;;
17714;SDS011;8977;50.902;4.314;2023-02-28T15:20:55;5.60;;;3.40;;
17714;SDS011;8977;50.902;4.314;2023-02-28T15:23:25;3.57;;;3.20;;
17714;SDS011;8977;50.902;4.314;2023-02-28T15:25:52;3.73;;;3.40;;
17714;SDS011;8977;50.902;4.314;2023-02-28T15:28:20;4.20;;;3.20;;
17714;SDS011;8977;50.902;4.314;2023-02-28T15:30:57;4.00;;;3.53;;
17714;SDS011;8977;50.902;4.314;2023-02-28T15:33:27;3.47;;;3.17;;
17714;SDS011;8977;50.902;4.314;2023-02-28T15:38:39;3.50;;;2.73;;
17714;SDS011;8977;50.902;4.314;2023-02-28T15:41:20;3.40;;;2.93;;
17714;SDS011;8977;50.902;4.314;2023-02-28T15:43:57;3.57;;;3.00;;
17714;SDS011;8977;50.902;4.314;2023-02-28T15:46:42;3.67;;;3.13;;
17714;SDS011;8977;50.902;4.314;2023-02-28T15:49:16;6.33;;;3.20;;
17714;SDS011;8977;50.902;4.314;2023-02-28T15:51:45;3.63;;;3.30;;
17714;SDS011;8977;50.902;4.314;2023-02-28T15:54:16;4.57;;;3.20;;
17714;SDS011;8977;50.902;4.314;2023-02-28T15:56:46;5.43;;;3.33;;
17714;SDS011;8977;50.902;4.314;2023-02-28T15:59:19;3.30;;;3.00;;